Terminal Aerodrome Forecast
Issued by NWS Duluth, MN

Home | Current Version | Previous Version | Text Only | Print | Product List | Glossary On
Versions: 1 2 3 4 5 6 7 8 9 10 11 12 13 14 15 16 17 18 19 20 21 22 23 24 25 26 27 28
000
FTUS43 KDLH 130500
TAFDLH
TAF
KDLH 130532Z 1306/1406 25003KT P6SM FEW070
     FM131600 23008KT P6SM FEW070
     FM132000 21012KT P6SM SCT070
     FM140000 18008KT P6SM SCT060=

USA.gov is the U.S. government's official web portal to all federal, state and local government web resources and services.